sensor_id;sensor_type;location;lat;lon;timestamp;P1;durP1;ratioP1;P2;durP2;ratioP2
48002;SDS011;33768;48.578;11.574;2023-09-08T00:01:42;8.13;;;6.57;;
48002;SDS011;33768;48.578;11.574;2023-09-08T00:04:46;9.53;;;6.10;;
48002;SDS011;33768;48.578;11.574;2023-09-08T00:07:51;7.07;;;5.13;;
48002;SDS011;33768;48.578;11.574;2023-09-08T00:10:55;7.53;;;5.83;;
48002;SDS011;33768;48.578;11.574;2023-09-08T00:13:59;8.93;;;6.23;;
48002;SDS011;33768;48.578;11.574;2023-09-08T00:17:03;7.17;;;5.97;;
48002;SDS011;33768;48.578;11.574;2023-09-08T00:20:08;6.30;;;5.70;;
48002;SDS011;33768;48.578;11.574;2023-09-08T00:23:12;8.57;;;6.03;;
48002;SDS011;33768;48.578;11.574;2023-09-08T00:26:16;7.17;;;6.00;;
48002;SDS011;33768;48.578;11.574;2023-09-08T00:29:21;7.70;;;5.93;;
48002;SDS011;33768;48.578;11.574;2023-09-08T00:32:25;9.40;;;5.43;;
48002;SDS011;33768;48.578;11.574;2023-09-08T00:35:29;8.73;;;5.80;;
48002;SDS011;33768;48.578;11.574;2023-09-08T00:38:33;6.57;;;5.87;;
48002;SDS011;33768;48.578;11.574;2023-09-08T00:41:37;6.23;;;5.63;;
48002;SDS011;33768;48.578;11.574;2023-09-08T00:44:41;6.40;;;5.67;;
48002;SDS011;33768;48.578;11.574;2023-09-08T00:47:45;7.27;;;5.83;;
48002;SDS011;33768;48.578;11.574;2023-09-08T00:50:49;6.77;;;5.33;;
48002;SDS011;33768;48.578;11.574;2023-09-08T00:53:54;6.50;;;5.80;;
48002;SDS011;33768;48.578;11.574;2023-09-08T00:56:58;11.40;;;6.00;;
48002;SDS011;33768;48.578;11.574;2023-09-08T01:00:06;7.80;;;6.57;;
48002;SDS011;33768;48.578;11.574;2023-09-08T01:03:11;7.47;;;6.37;;
48002;SDS011;33768;48.578;11.574;2023-09-08T01:06:16;9.63;;;7.30;;
48002;SDS011;33768;48.578;11.574;2023-09-08T01:09:21;7.50;;;6.70;;
48002;SDS011;33768;48.578;11.574;2023-09-08T01:12:25;10.23;;;7.20;;
48002;SDS011;33768;48.578;11.574;2023-09-08T01:15:30;9.20;;;7.57;;
48002;SDS011;33768;48.578;11.574;2023-09-08T01:18:34;11.33;;;8.33;;
48002;SDS011;33768;48.578;11.574;2023-09-08T01:25:04;10.73;;;8.63;;
48002;SDS011;33768;48.578;11.574;2023-09-08T01:28:22;9.10;;;8.00;;
48002;SDS011;33768;48.578;11.574;2023-09-08T01:31:28;11.17;;;8.57;;
48002;SDS011;33768;48.578;11.574;2023-09-08T01:34:32;11.80;;;8.63;;
48002;SDS011;33768;48.578;11.574;2023-09-08T01:37:41;10.87;;;7.63;;
48002;SDS011;33768;48.578;11.574;2023-09-08T01:40:46;6.83;;;6.13;;
48002;SDS011;33768;48.578;11.574;2023-09-08T01:43:50;8.83;;;6.10;;
48002;SDS011;33768;48.578;11.574;2023-09-08T01:46:55;10.23;;;6.60;;
48002;SDS011;33768;48.578;11.574;2023-09-08T01:50:00;9.80;;;6.13;;
48002;SDS011;33768;48.578;11.574;2023-09-08T01:53:05;6.87;;;6.17;;
48002;SDS011;33768;48.578;11.574;2023-09-08T01:56:09;7.03;;;5.57;;
48002;SDS011;33768;48.578;11.574;2023-09-08T01:59:13;7.57;;;6.30;;
48002;SDS011;33768;48.578;11.574;2023-09-08T02:02:17;8.07;;;5.70;;
48002;SDS011;33768;48.578;11.574;2023-09-08T02:05:22;6.90;;;6.00;;
48002;SDS011;33768;48.578;11.574;2023-09-08T02:08:26;5.93;;;5.33;;
48002;SDS011;33768;48.578;11.574;2023-09-08T02:11:30;5.60;;;5.07;;
48002;SDS011;33768;48.578;11.574;2023-09-08T02:14:35;6.67;;;5.23;;
48002;SDS011;33768;48.578;11.574;2023-09-08T02:17:39;8.10;;;5.70;;
48002;SDS011;33768;48.578;11.574;2023-09-08T02:20:43;7.77;;;5.97;;
48002;SDS011;33768;48.578;11.574;2023-09-08T02:23:47;9.73;;;5.70;;
48002;SDS011;33768;48.578;11.574;2023-09-08T02:26:52;5.57;;;5.00;;
48002;SDS011;33768;48.578;11.574;2023-09-08T02:29:56;6.23;;;5.43;;
48002;SDS011;33768;48.578;11.574;2023-09-08T02:33:01;13.13;;;6.67;;
48002;SDS011;33768;48.578;11.574;2023-09-08T02:36:06;6.97;;;5.40;;
48002;SDS011;33768;48.578;11.574;2023-09-08T02:39:13;7.43;;;5.93;;
48002;SDS011;33768;48.578;11.574;2023-09-08T02:42:17;8.30;;;6.33;;
48002;SDS011;33768;48.578;11.574;2023-09-08T02:45:21;7.80;;;5.47;;
48002;SDS011;33768;48.578;11.574;2023-09-08T02:48:27;7.37;;;5.83;;
48002;SDS011;33768;48.578;11.574;2023-09-08T02:51:31;7.33;;;6.00;;
48002;SDS011;33768;48.578;11.574;2023-09-08T02:54:35;8.90;;;5.70;;
48002;SDS011;33768;48.578;11.574;2023-09-08T02:57:40;7.47;;;6.07;;
48002;SDS011;33768;48.578;11.574;2023-09-08T03:00:44;8.03;;;5.97;;
48002;SDS011;33768;48.578;11.574;2023-09-08T03:03:48;7.03;;;6.10;;
48002;SDS011;33768;48.578;11.574;2023-09-08T03:06:54;8.37;;;5.63;;
48002;SDS011;33768;48.578;11.574;2023-09-08T03:09:58;6.33;;;5.53;;
48002;SDS011;33768;48.578;11.574;2023-09-08T03:13:03;8.80;;;5.83;;
48002;SDS011;33768;48.578;11.574;2023-09-08T03:16:07;8.93;;;5.73;;
48002;SDS011;33768;48.578;11.574;2023-09-08T03:19:12;6.57;;;5.37;;
48002;SDS011;33768;48.578;11.574;2023-09-08T03:22:16;7.37;;;5.87;;
48002;SDS011;33768;48.578;11.574;2023-09-08T03:25:21;9.20;;;6.07;;
48002;SDS011;33768;48.578;11.574;2023-09-08T03:28:25;8.60;;;5.97;;
48002;SDS011;33768;48.578;11.574;2023-09-08T03:31:29;7.83;;;6.10;;
48002;SDS011;33768;48.578;11.574;2023-09-08T03:34:34;6.83;;;5.57;;
48002;SDS011;33768;48.578;11.574;2023-09-08T03:37:39;7.23;;;5.57;;
48002;SDS011;33768;48.578;11.574;2023-09-08T03:40:43;8.73;;;5.90;;
48002;SDS011;33768;48.578;11.574;2023-09-08T03:43:48;7.40;;;6.30;;
48002;SDS011;33768;48.578;11.574;2023-09-08T03:46:53;6.73;;;6.03;;
48002;SDS011;33768;48.578;11.574;2023-09-08T03:49:57;7.80;;;5.90;;
48002;SDS011;33768;48.578;11.574;2023-09-08T03:53:02;11.83;;;6.20;;
48002;SDS011;33768;48.578;11.574;2023-09-08T03:56:06;7.60;;;6.17;;
48002;SDS011;33768;48.578;11.574;2023-09-08T03:59:11;7.87;;;6.63;;
48002;SDS011;33768;48.578;11.574;2023-09-08T04:02:15;7.23;;;6.23;;
48002;SDS011;33768;48.578;11.574;2023-09-08T04:05:19;8.00;;;6.60;;
48002;SDS011;33768;48.578;11.574;2023-09-08T04:08:24;8.53;;;6.17;;
48002;SDS011;33768;48.578;11.574;2023-09-08T04:11:28;6.90;;;6.20;;
48002;SDS011;33768;48.578;11.574;2023-09-08T04:14:32;20.17;;;7.10;;
48002;SDS011;33768;48.578;11.574;2023-09-08T04:17:38;13.60;;;6.83;;
48002;SDS011;33768;48.578;11.574;2023-09-08T04:20:42;7.37;;;6.07;;
48002;SDS011;33768;48.578;11.574;2023-09-08T04:23:47;7.80;;;6.87;;
48002;SDS011;33768;48.578;11.574;2023-09-08T04:26:52;7.37;;;6.57;;
48002;SDS011;33768;48.578;11.574;2023-09-08T04:29:56;7.40;;;6.37;;
48002;SDS011;33768;48.578;11.574;2023-09-08T04:33:00;7.90;;;6.13;;
48002;SDS011;33768;48.578;11.574;2023-09-08T04:36:04;7.57;;;6.27;;
48002;SDS011;33768;48.578;11.574;2023-09-08T04:39:08;10.60;;;6.17;;
48002;SDS011;33768;48.578;11.574;2023-09-08T04:42:15;7.37;;;6.10;;
48002;SDS011;33768;48.578;11.574;2023-09-08T04:45:19;10.60;;;6.30;;
48002;SDS011;33768;48.578;11.574;2023-09-08T04:48:24;7.87;;;6.70;;
48002;SDS011;33768;48.578;11.574;2023-09-08T04:51:28;11.67;;;6.80;;
48002;SDS011;33768;48.578;11.574;2023-09-08T04:54:32;9.37;;;7.17;;
48002;SDS011;33768;48.578;11.574;2023-09-08T04:57:36;8.50;;;6.80;;
48002;SDS011;33768;48.578;11.574;2023-09-08T05:00:40;7.80;;;7.00;;
48002;SDS011;33768;48.578;11.574;2023-09-08T05:03:45;8.90;;;7.20;;
48002;SDS011;33768;48.578;11.574;2023-09-08T05:06:50;8.23;;;7.10;;
48002;SDS011;33768;48.578;11.574;2023-09-08T05:09:56;10.10;;;7.03;;
48002;SDS011;33768;48.578;11.574;2023-09-08T05:13:00;8.07;;;6.60;;
48002;SDS011;33768;48.578;11.574;2023-09-08T05:16:04;11.40;;;7.20;;
48002;SDS011;33768;48.578;11.574;2023-09-08T05:19:17;8.40;;;6.30;;
48002;SDS011;33768;48.578;11.574;2023-09-08T05:22:21;8.63;;;6.27;;
48002;SDS011;33768;48.578;11.574;2023-09-08T05:25:27;9.43;;;6.50;;
48002;SDS011;33768;48.578;11.574;2023-09-08T05:28:31;9.20;;;5.87;;
48002;SDS011;33768;48.578;11.574;2023-09-08T05:31:35;7.60;;;6.20;;
48002;SDS011;33768;48.578;11.574;2023-09-08T05:34:39;11.00;;;7.17;;
48002;SDS011;33768;48.578;11.574;2023-09-08T05:37:43;9.93;;;7.53;;
48002;SDS011;33768;48.578;11.574;2023-09-08T05:40:48;8.57;;;7.13;;
48002;SDS011;33768;48.578;11.574;2023-09-08T05:43:52;12.37;;;7.07;;
48002;SDS011;33768;48.578;11.574;2023-09-08T05:46:57;10.00;;;6.40;;
48002;SDS011;33768;48.578;11.574;2023-09-08T05:50:02;14.83;;;8.47;;
48002;SDS011;33768;48.578;11.574;2023-09-08T05:53:07;15.40;;;9.23;;
48002;SDS011;33768;48.578;11.574;2023-09-08T05:56:11;10.23;;;8.73;;
48002;SDS011;33768;48.578;11.574;2023-09-08T05:59:18;16.43;;;11.83;;
48002;SDS011;33768;48.578;11.574;2023-09-08T06:02:22;17.93;;;11.83;;
48002;SDS011;33768;48.578;11.574;2023-09-08T06:05:26;20.80;;;12.50;;
48002;SDS011;33768;48.578;11.574;2023-09-08T06:08:31;16.47;;;10.40;;
48002;SDS011;33768;48.578;11.574;2023-09-08T06:11:35;18.77;;;11.00;;
48002;SDS011;33768;48.578;11.574;2023-09-08T06:14:40;20.10;;;10.53;;
48002;SDS011;33768;48.578;11.574;2023-09-08T06:17:44;27.40;;;9.93;;
48002;SDS011;33768;48.578;11.574;2023-09-08T06:20:51;23.53;;;10.17;;
48002;SDS011;33768;48.578;11.574;2023-09-08T06:23:56;17.53;;;9.47;;
48002;SDS011;33768;48.578;11.574;2023-09-08T06:27:01;28.63;;;11.03;;
48002;SDS011;33768;48.578;11.574;2023-09-08T06:30:06;16.47;;;11.90;;
48002;SDS011;33768;48.578;11.574;2023-09-08T06:33:11;23.77;;;15.07;;
48002;SDS011;33768;48.578;11.574;2023-09-08T06:36:15;26.63;;;17.73;;
48002;SDS011;33768;48.578;11.574;2023-09-08T06:39:19;27.40;;;16.90;;
48002;SDS011;33768;48.578;11.574;2023-09-08T06:42:24;24.53;;;15.73;;
48002;SDS011;33768;48.578;11.574;2023-09-08T06:45:37;31.83;;;16.97;;
48002;SDS011;33768;48.578;11.574;2023-09-08T06:48:42;25.27;;;15.00;;
48002;SDS011;33768;48.578;11.574;2023-09-08T06:51:47;37.30;;;13.00;;
48002;SDS011;33768;48.578;11.574;2023-09-08T06:54:52;29.87;;;12.40;;
48002;SDS011;33768;48.578;11.574;2023-09-08T06:57:57;21.80;;;9.43;;
48002;SDS011;33768;48.578;11.574;2023-09-08T07:01:01;13.17;;;7.73;;
48002;SDS011;33768;48.578;11.574;2023-09-08T07:04:06;28.40;;;7.60;;
48002;SDS011;33768;48.578;11.574;2023-09-08T07:07:10;9.57;;;5.57;;
48002;SDS011;33768;48.578;11.574;2023-09-08T07:10:16;6.97;;;5.47;;
48002;SDS011;33768;48.578;11.574;2023-09-08T07:13:20;7.23;;;5.63;;
48002;SDS011;33768;48.578;11.574;2023-09-08T07:16:24;8.93;;;6.37;;
48002;SDS011;33768;48.578;11.574;2023-09-08T07:19:29;8.70;;;6.53;;
48002;SDS011;33768;48.578;11.574;2023-09-08T07:22:33;8.43;;;5.90;;
48002;SDS011;33768;48.578;11.574;2023-09-08T07:25:38;16.40;;;6.03;;
48002;SDS011;33768;48.578;11.574;2023-09-08T07:28:42;9.33;;;5.80;;
48002;SDS011;33768;48.578;11.574;2023-09-08T07:31:50;69.83;;;9.97;;
48002;SDS011;33768;48.578;11.574;2023-09-08T07:34:56;7.33;;;5.50;;
48002;SDS011;33768;48.578;11.574;2023-09-08T07:38:00;6.67;;;5.47;;
48002;SDS011;33768;48.578;11.574;2023-09-08T07:41:05;7.20;;;5.17;;
48002;SDS011;33768;48.578;11.574;2023-09-08T07:44:11;7.33;;;4.97;;
48002;SDS011;33768;48.578;11.574;2023-09-08T07:47:17;30.57;;;5.80;;
48002;SDS011;33768;48.578;11.574;2023-09-08T07:50:22;12.00;;;6.90;;
48002;SDS011;33768;48.578;11.574;2023-09-08T07:53:33;8.93;;;5.53;;
48002;SDS011;33768;48.578;11.574;2023-09-08T07:56:37;8.53;;;6.80;;
48002;SDS011;33768;48.578;11.574;2023-09-08T07:59:41;7.93;;;5.80;;
48002;SDS011;33768;48.578;11.574;2023-09-08T08:02:46;9.97;;;5.40;;
48002;SDS011;33768;48.578;11.574;2023-09-08T08:05:52;6.30;;;5.47;;
48002;SDS011;33768;48.578;11.574;2023-09-08T08:08:56;8.37;;;5.77;;
48002;SDS011;33768;48.578;11.574;2023-09-08T08:12:00;11.63;;;5.37;;
48002;SDS011;33768;48.578;11.574;2023-09-08T08:15:04;9.27;;;5.60;;
48002;SDS011;33768;48.578;11.574;2023-09-08T08:18:09;8.53;;;5.07;;
48002;SDS011;33768;48.578;11.574;2023-09-08T08:21:13;7.80;;;4.97;;
48002;SDS011;33768;48.578;11.574;2023-09-08T08:24:19;8.33;;;4.93;;
48002;SDS011;33768;48.578;11.574;2023-09-08T08:27:23;6.13;;;4.73;;
48002;SDS011;33768;48.578;11.574;2023-09-08T08:30:27;5.93;;;5.07;;
48002;SDS011;33768;48.578;11.574;2023-09-08T08:33:31;7.30;;;5.00;;
48002;SDS011;33768;48.578;11.574;2023-09-08T08:36:36;12.93;;;5.00;;
48002;SDS011;33768;48.578;11.574;2023-09-08T08:39:41;7.10;;;4.83;;
48002;SDS011;33768;48.578;11.574;2023-09-08T08:42:44;11.27;;;4.90;;
48002;SDS011;33768;48.578;11.574;2023-09-08T08:45:49;8.77;;;5.72;;
48002;SDS011;33768;48.578;11.574;2023-09-08T08:48:54;7.32;;;5.32;;
48002;SDS011;33768;48.578;11.574;2023-09-08T08:51:59;11.90;;;5.05;;
48002;SDS011;33768;48.578;11.574;2023-09-08T08:55:07;12.98;;;4.95;;
48002;SDS011;33768;48.578;11.574;2023-09-08T08:58:12;8.88;;;4.97;;
48002;SDS011;33768;48.578;11.574;2023-09-08T09:01:18;18.23;;;5.47;;
48002;SDS011;33768;48.578;11.574;2023-09-08T09:04:25;9.73;;;4.63;;
48002;SDS011;33768;48.578;11.574;2023-09-08T09:07:30;5.25;;;4.50;;
48002;SDS011;33768;48.578;11.574;2023-09-08T09:10:35;6.43;;;5.28;;
48002;SDS011;33768;48.578;11.574;2023-09-08T09:13:38;5.88;;;5.20;;
48002;SDS011;33768;48.578;11.574;2023-09-08T09:16:43;6.40;;;5.22;;
48002;SDS011;33768;48.578;11.574;2023-09-08T09:19:48;9.38;;;5.25;;
48002;SDS011;33768;48.578;11.574;2023-09-08T09:22:52;6.85;;;5.53;;
48002;SDS011;33768;48.578;11.574;2023-09-08T09:25:56;17.38;;;5.90;;
48002;SDS011;33768;48.578;11.574;2023-09-08T09:29:01;11.07;;;6.05;;
48002;SDS011;33768;48.578;11.574;2023-09-08T09:32:06;7.93;;;6.47;;
48002;SDS011;33768;48.578;11.574;2023-09-08T09:35:14;24.52;;;9.75;;
48002;SDS011;33768;48.578;11.574;2023-09-08T09:38:20;7.97;;;5.43;;
48002;SDS011;33768;48.578;11.574;2023-09-08T09:41:27;41.47;;;6.65;;
48002;SDS011;33768;48.578;11.574;2023-09-08T09:44:32;8.55;;;5.22;;
48002;SDS011;33768;48.578;11.574;2023-09-08T09:47:36;5.68;;;5.03;;
48002;SDS011;33768;48.578;11.574;2023-09-08T09:50:40;14.10;;;6.03;;
48002;SDS011;33768;48.578;11.574;2023-09-08T09:53:46;13.32;;;5.47;;
48002;SDS011;33768;48.578;11.574;2023-09-08T09:56:52;8.30;;;5.57;;
48002;SDS011;33768;48.578;11.574;2023-09-08T09:59:57;8.70;;;5.10;;
48002;SDS011;33768;48.578;11.574;2023-09-08T10:03:03;7.90;;;4.97;;
48002;SDS011;33768;48.578;11.574;2023-09-08T10:06:08;12.40;;;5.45;;
48002;SDS011;33768;48.578;11.574;2023-09-08T10:09:13;9.75;;;5.68;;
48002;SDS011;33768;48.578;11.574;2023-09-08T10:12:19;10.48;;;5.00;;
48002;SDS011;33768;48.578;11.574;2023-09-08T10:15:23;5.47;;;4.90;;
48002;SDS011;33768;48.578;11.574;2023-09-08T10:18:28;5.82;;;4.78;;
48002;SDS011;33768;48.578;11.574;2023-09-08T10:21:33;6.97;;;5.78;;
48002;SDS011;33768;48.578;11.574;2023-09-08T10:24:42;6.78;;;5.25;;
48002;SDS011;33768;48.578;11.574;2023-09-08T10:27:50;8.15;;;5.15;;
48002;SDS011;33768;48.578;11.574;2023-09-08T10:30:54;6.80;;;5.20;;
48002;SDS011;33768;48.578;11.574;2023-09-08T10:33:59;6.28;;;4.63;;
48002;SDS011;33768;48.578;11.574;2023-09-08T10:37:24;7.55;;;5.38;;
48002;SDS011;33768;48.578;11.574;2023-09-08T10:40:29;5.97;;;5.10;;
48002;SDS011;33768;48.578;11.574;2023-09-08T10:43:37;9.38;;;5.13;;
48002;SDS011;33768;48.578;11.574;2023-09-08T10:46:41;5.57;;;4.78;;
48002;SDS011;33768;48.578;11.574;2023-09-08T10:49:45;8.88;;;4.97;;
48002;SDS011;33768;48.578;11.574;2023-09-08T10:53:03;24.38;;;5.47;;
48002;SDS011;33768;48.578;11.574;2023-09-08T10:56:18;8.27;;;5.40;;
48002;SDS011;33768;48.578;11.574;2023-09-08T10:59:27;10.00;;;5.45;;
48002;SDS011;33768;48.578;11.574;2023-09-08T11:02:36;17.95;;;5.18;;
48002;SDS011;33768;48.578;11.574;2023-09-08T11:05:48;7.35;;;6.00;;
48002;SDS011;33768;48.578;11.574;2023-09-08T11:08:52;6.35;;;5.72;;
48002;SDS011;33768;48.578;11.574;2023-09-08T11:12:00;6.22;;;5.57;;
48002;SDS011;33768;48.578;11.574;2023-09-08T11:15:07;10.38;;;5.85;;
48002;SDS011;33768;48.578;11.574;2023-09-08T11:18:12;9.88;;;5.30;;
48002;SDS011;33768;48.578;11.574;2023-09-08T11:21:17;7.03;;;5.40;;
48002;SDS011;33768;48.578;11.574;2023-09-08T11:24:21;7.03;;;5.32;;
48002;SDS011;33768;48.578;11.574;2023-09-08T11:27:25;6.00;;;5.40;;
48002;SDS011;33768;48.578;11.574;2023-09-08T11:30:29;7.05;;;4.95;;
48002;SDS011;33768;48.578;11.574;2023-09-08T11:33:36;7.88;;;5.50;;
48002;SDS011;33768;48.578;11.574;2023-09-08T11:36:43;31.02;;;6.68;;
48002;SDS011;33768;48.578;11.574;2023-09-08T11:39:47;11.20;;;5.63;;
48002;SDS011;33768;48.578;11.574;2023-09-08T11:42:53;50.47;;;8.48;;
48002;SDS011;33768;48.578;11.574;2023-09-08T11:45:57;16.17;;;6.25;;
48002;SDS011;33768;48.578;11.574;2023-09-08T11:49:01;7.45;;;5.53;;
48002;SDS011;33768;48.578;11.574;2023-09-08T11:52:08;7.25;;;6.53;;
48002;SDS011;33768;48.578;11.574;2023-09-08T11:55:12;24.83;;;7.55;;
48002;SDS011;33768;48.578;11.574;2023-09-08T11:58:17;10.77;;;5.55;;
48002;SDS011;33768;48.578;11.574;2023-09-08T12:01:23;19.42;;;6.38;;
48002;SDS011;33768;48.578;11.574;2023-09-08T12:04:27;13.57;;;6.40;;
48002;SDS011;33768;48.578;11.574;2023-09-08T12:07:31;7.60;;;5.45;;
48002;SDS011;33768;48.578;11.574;2023-09-08T12:10:42;7.78;;;5.75;;
48002;SDS011;33768;48.578;11.574;2023-09-08T12:13:46;7.40;;;6.63;;
48002;SDS011;33768;48.578;11.574;2023-09-08T12:16:54;55.35;;;10.65;;
48002;SDS011;33768;48.578;11.574;2023-09-08T12:20:13;7.75;;;5.55;;
48002;SDS011;33768;48.578;11.574;2023-09-08T12:23:19;7.35;;;5.53;;
48002;SDS011;33768;48.578;11.574;2023-09-08T12:26:24;5.97;;;5.30;;
48002;SDS011;33768;48.578;11.574;2023-09-08T12:29:29;12.05;;;5.50;;
48002;SDS011;33768;48.578;11.574;2023-09-08T12:32:32;8.40;;;5.32;;
48002;SDS011;33768;48.578;11.574;2023-09-08T12:35:36;16.90;;;5.93;;
48002;SDS011;33768;48.578;11.574;2023-09-08T12:38:41;8.27;;;5.80;;
48002;SDS011;33768;48.578;11.574;2023-09-08T12:41:50;8.00;;;6.03;;
48002;SDS011;33768;48.578;11.574;2023-09-08T12:44:54;8.75;;;5.70;;
48002;SDS011;33768;48.578;11.574;2023-09-08T12:47:59;6.95;;;5.28;;
48002;SDS011;33768;48.578;11.574;2023-09-08T12:51:05;10.07;;;5.50;;
48002;SDS011;33768;48.578;11.574;2023-09-08T12:54:09;5.90;;;5.30;;
48002;SDS011;33768;48.578;11.574;2023-09-08T12:57:14;7.80;;;5.93;;
48002;SDS011;33768;48.578;11.574;2023-09-08T13:00:18;32.90;;;6.80;;
48002;SDS011;33768;48.578;11.574;2023-09-08T13:03:22;16.00;;;6.63;;
48002;SDS011;33768;48.578;11.574;2023-09-08T13:06:26;7.68;;;5.63;;
48002;SDS011;33768;48.578;11.574;2023-09-08T13:09:30;8.60;;;5.88;;
48002;SDS011;33768;48.578;11.574;2023-09-08T13:12:34;6.28;;;5.40;;
48002;SDS011;33768;48.578;11.574;2023-09-08T13:15:38;7.03;;;5.35;;
48002;SDS011;33768;48.578;11.574;2023-09-08T13:18:41;7.05;;;5.78;;
48002;SDS011;33768;48.578;11.574;2023-09-08T13:21:45;5.85;;;4.65;;
48002;SDS011;33768;48.578;11.574;2023-09-08T13:24:50;7.80;;;6.13;;
48002;SDS011;33768;48.578;11.574;2023-09-08T13:27:54;6.47;;;5.53;;
48002;SDS011;33768;48.578;11.574;2023-09-08T13:30:58;6.97;;;6.05;;
48002;SDS011;33768;48.578;11.574;2023-09-08T13:34:02;6.68;;;5.40;;
48002;SDS011;33768;48.578;11.574;2023-09-08T13:37:06;8.10;;;5.80;;
48002;SDS011;33768;48.578;11.574;2023-09-08T13:40:10;16.45;;;6.40;;
48002;SDS011;33768;48.578;11.574;2023-09-08T13:43:14;6.95;;;5.82;;
48002;SDS011;33768;48.578;11.574;2023-09-08T13:46:18;8.00;;;5.55;;
48002;SDS011;33768;48.578;11.574;2023-09-08T13:49:22;7.10;;;5.50;;
48002;SDS011;33768;48.578;11.574;2023-09-08T13:52:27;8.05;;;5.70;;
48002;SDS011;33768;48.578;11.574;2023-09-08T13:55:31;7.10;;;5.45;;
48002;SDS011;33768;48.578;11.574;2023-09-08T13:58:35;10.77;;;5.38;;
48002;SDS011;33768;48.578;11.574;2023-09-08T14:01:38;8.55;;;5.60;;
48002;SDS011;33768;48.578;11.574;2023-09-08T14:04:42;6.65;;;5.75;;
48002;SDS011;33768;48.578;11.574;2023-09-08T14:07:47;31.13;;;8.50;;
48002;SDS011;33768;48.578;11.574;2023-09-08T14:10:52;16.65;;;6.38;;
48002;SDS011;33768;48.578;11.574;2023-09-08T14:13:57;22.45;;;7.75;;
48002;SDS011;33768;48.578;11.574;2023-09-08T14:17:00;37.40;;;7.35;;
48002;SDS011;33768;48.578;11.574;2023-09-08T14:20:05;8.48;;;5.32;;
48002;SDS011;33768;48.578;11.574;2023-09-08T14:23:11;8.65;;;6.03;;
48002;SDS011;33768;48.578;11.574;2023-09-08T14:26:15;9.20;;;6.03;;
48002;SDS011;33768;48.578;11.574;2023-09-08T14:29:21;8.23;;;6.22;;
48002;SDS011;33768;48.578;11.574;2023-09-08T14:32:26;8.90;;;6.22;;
48002;SDS011;33768;48.578;11.574;2023-09-08T14:35:34;6.95;;;5.78;;
48002;SDS011;33768;48.578;11.574;2023-09-08T14:38:38;9.52;;;5.55;;
48002;SDS011;33768;48.578;11.574;2023-09-08T14:41:44;21.48;;;6.00;;
48002;SDS011;33768;48.578;11.574;2023-09-08T14:44:49;8.25;;;5.18;;
48002;SDS011;33768;48.578;11.574;2023-09-08T14:47:55;10.55;;;5.80;;
48002;SDS011;33768;48.578;11.574;2023-09-08T14:50:59;7.38;;;6.20;;
48002;SDS011;33768;48.578;11.574;2023-09-08T14:54:04;8.80;;;5.53;;
48002;SDS011;33768;48.578;11.574;2023-09-08T14:57:08;8.82;;;5.95;;
48002;SDS011;33768;48.578;11.574;2023-09-08T15:00:12;8.35;;;5.75;;
48002;SDS011;33768;48.578;11.574;2023-09-08T15:03:17;6.35;;;5.47;;
48002;SDS011;33768;48.578;11.574;2023-09-08T15:06:21;13.43;;;6.25;;
48002;SDS011;33768;48.578;11.574;2023-09-08T15:09:25;12.63;;;6.05;;
48002;SDS011;33768;48.578;11.574;2023-09-08T15:12:29;10.63;;;5.63;;
48002;SDS011;33768;48.578;11.574;2023-09-08T15:15:33;10.98;;;5.80;;
48002;SDS011;33768;48.578;11.574;2023-09-08T15:18:38;6.38;;;5.68;;
48002;SDS011;33768;48.578;11.574;2023-09-08T15:21:42;8.23;;;5.60;;
48002;SDS011;33768;48.578;11.574;2023-09-08T15:24:46;16.25;;;6.93;;
48002;SDS011;33768;48.578;11.574;2023-09-08T15:27:50;11.82;;;6.18;;
48002;SDS011;33768;48.578;11.574;2023-09-08T15:30:54;22.52;;;6.97;;
48002;SDS011;33768;48.578;11.574;2023-09-08T15:33:59;9.90;;;5.90;;
48002;SDS011;33768;48.578;11.574;2023-09-08T15:37:03;7.03;;;6.00;;
48002;SDS011;33768;48.578;11.574;2023-09-08T15:40:07;15.55;;;6.13;;
48002;SDS011;33768;48.578;11.574;2023-09-08T15:43:17;13.88;;;6.20;;
48002;SDS011;33768;48.578;11.574;2023-09-08T15:46:21;9.90;;;5.93;;
48002;SDS011;33768;48.578;11.574;2023-09-08T15:49:25;13.75;;;6.60;;
48002;SDS011;33768;48.578;11.574;2023-09-08T15:52:30;7.97;;;6.07;;
48002;SDS011;33768;48.578;11.574;2023-09-08T15:55:34;6.43;;;5.82;;
48002;SDS011;33768;48.578;11.574;2023-09-08T15:58:38;7.05;;;5.35;;
48002;SDS011;33768;48.578;11.574;2023-09-08T16:01:42;7.10;;;5.82;;
48002;SDS011;33768;48.578;11.574;2023-09-08T16:04:46;11.45;;;6.60;;
48002;SDS011;33768;48.578;11.574;2023-09-08T16:07:51;9.13;;;5.72;;
48002;SDS011;33768;48.578;11.574;2023-09-08T16:10:55;11.23;;;6.40;;
48002;SDS011;33768;48.578;11.574;2023-09-08T16:13:59;7.28;;;5.75;;
48002;SDS011;33768;48.578;11.574;2023-09-08T16:17:03;38.28;;;7.03;;
48002;SDS011;33768;48.578;11.574;2023-09-08T16:20:07;11.20;;;6.57;;
48002;SDS011;33768;48.578;11.574;2023-09-08T16:23:12;9.48;;;6.63;;
48002;SDS011;33768;48.578;11.574;2023-09-08T16:26:15;8.32;;;6.03;;
48002;SDS011;33768;48.578;11.574;2023-09-08T16:29:20;9.18;;;6.25;;
48002;SDS011;33768;48.578;11.574;2023-09-08T16:32:23;10.55;;;6.97;;
48002;SDS011;33768;48.578;11.574;2023-09-08T16:35:28;66.53;;;11.90;;
48002;SDS011;33768;48.578;11.574;2023-09-08T16:38:32;33.05;;;8.00;;
48002;SDS011;33768;48.578;11.574;2023-09-08T16:41:38;20.35;;;7.97;;
48002;SDS011;33768;48.578;11.574;2023-09-08T16:44:42;12.40;;;6.78;;
48002;SDS011;33768;48.578;11.574;2023-09-08T16:47:47;12.20;;;6.68;;
48002;SDS011;33768;48.578;11.574;2023-09-08T16:50:51;10.02;;;5.95;;
48002;SDS011;33768;48.578;11.574;2023-09-08T16:53:56;8.15;;;6.10;;
48002;SDS011;33768;48.578;11.574;2023-09-08T16:57:01;22.23;;;6.80;;
48002;SDS011;33768;48.578;11.574;2023-09-08T17:00:06;20.33;;;6.57;;
48002;SDS011;33768;48.578;11.574;2023-09-08T17:03:11;14.53;;;7.03;;
48002;SDS011;33768;48.578;11.574;2023-09-08T17:06:15;9.90;;;5.82;;
48002;SDS011;33768;48.578;11.574;2023-09-08T17:09:20;8.83;;;5.70;;
48002;SDS011;33768;48.578;11.574;2023-09-08T17:12:24;7.50;;;5.97;;
48002;SDS011;33768;48.578;11.574;2023-09-08T17:15:30;8.27;;;5.73;;
48002;SDS011;33768;48.578;11.574;2023-09-08T17:18:34;7.37;;;5.77;;
48002;SDS011;33768;48.578;11.574;2023-09-08T17:21:38;7.43;;;5.83;;
48002;SDS011;33768;48.578;11.574;2023-09-08T17:24:42;8.90;;;6.30;;
48002;SDS011;33768;48.578;11.574;2023-09-08T17:27:46;8.17;;;6.27;;
48002;SDS011;33768;48.578;11.574;2023-09-08T17:30:50;7.40;;;5.90;;
48002;SDS011;33768;48.578;11.574;2023-09-08T17:33:55;10.30;;;5.80;;
48002;SDS011;33768;48.578;11.574;2023-09-08T17:36:59;8.43;;;5.90;;
48002;SDS011;33768;48.578;11.574;2023-09-08T17:40:06;8.50;;;6.07;;
48002;SDS011;33768;48.578;11.574;2023-09-08T17:43:13;6.47;;;5.80;;
48002;SDS011;33768;48.578;11.574;2023-09-08T17:46:17;8.93;;;6.60;;
48002;SDS011;33768;48.578;11.574;2023-09-08T17:49:21;8.67;;;6.13;;
48002;SDS011;33768;48.578;11.574;2023-09-08T17:52:28;11.13;;;6.13;;
48002;SDS011;33768;48.578;11.574;2023-09-08T17:55:33;8.80;;;6.60;;
48002;SDS011;33768;48.578;11.574;2023-09-08T17:58:37;13.27;;;7.10;;
48002;SDS011;33768;48.578;11.574;2023-09-08T18:01:41;11.53;;;7.03;;
48002;SDS011;33768;48.578;11.574;2023-09-08T18:04:45;7.60;;;6.77;;
48002;SDS011;33768;48.578;11.574;2023-09-08T18:07:49;7.77;;;6.97;;
48002;SDS011;33768;48.578;11.574;2023-09-08T18:11:01;8.00;;;6.73;;
48002;SDS011;33768;48.578;11.574;2023-09-08T18:14:06;8.37;;;7.33;;